Terminal Aerodrome Forecast
Issued by NWS Blacksburg, VA

Current Version | Previous Version | Graphics & Text | Print | Product List | Glossary On
Versions: 1 2 3 4 5 6 7 8 9 10 11 12 13 14 15 16 17 18
000
FTUS41 KRNK 150520
TAFBLF
TAF
KBLF 150520Z 1506/1606 24011KT P6SM -SHRA SCT010 BKN020
      TEMPO 1506/1509 4SM -SHRA OVC007
     FM150900 25011KT P6SM BKN010 WS020/26040KT
     FM151300 26012KT P6SM VCSH OVC003
     FM151700 25013G21KT P6SM VCSH BKN010
     FM160100 26011KT P6SM OVC025=

USA.gov is the U.S. government's official web portal to all federal, state and local government web resources and services.